createdAt,value
2018-07-27T00:01:39.766Z,50.60
2018-07-27T00:04:08.523Z,50.60
2018-07-27T00:06:37.249Z,50.70
2018-07-27T00:11:35.831Z,50.40
2018-07-27T00:14:04.689Z,51.30
2018-07-27T00:16:33.394Z,51.30
2018-07-27T00:19:02.108Z,51.40
2018-07-27T00:21:31.128Z,52.00
2018-07-27T00:23:59.924Z,51.40
2018-07-27T00:26:28.788Z,52.10
2018-07-27T00:31:26.149Z,52.80
2018-07-27T00:33:54.920Z,52.90
2018-07-27T00:36:23.714Z,53.10
2018-07-27T00:38:52.437Z,53.60
2018-07-27T00:43:49.666Z,54.30
2018-07-27T00:46:18.539Z,54.40
2018-07-27T00:48:47.273Z,54.60
2018-07-27T00:51:16.046Z,55.10
2018-07-27T00:53:44.730Z,55.60
2018-07-27T00:56:13.463Z,55.60
2018-07-27T00:58:42.185Z,55.70
2018-07-27T01:01:11.204Z,55.60
2018-07-27T01:03:39.960Z,55.70
2018-07-27T01:06:08.674Z,55.70
2018-07-27T01:08:37.397Z,55.60
2018-07-27T01:11:06.292Z,55.70
2018-07-27T01:13:35.028Z,55.80
2018-07-27T01:16:03.828Z,55.80
2018-07-27T01:18:32.573Z,56.00
2018-07-27T01:21:01.287Z,56.10
2018-07-27T01:23:30.014Z,56.40
2018-07-27T01:28:27.297Z,56.80
2018-07-27T01:30:56.056Z,57.00
2018-07-27T01:33:24.841Z,57.20
2018-07-27T01:35:53.537Z,57.50
2018-07-27T01:38:22.249Z,57.70
2018-07-27T01:40:51.005Z,58.40
2018-07-27T01:43:19.695Z,58.30
2018-07-27T01:45:48.432Z,58.50
2018-07-27T01:48:17.168Z,58.70
2018-07-27T01:50:45.955Z,59.00
2018-07-27T01:53:14.646Z,59.50
2018-07-27T01:55:43.362Z,59.60
2018-07-27T01:58:12.075Z,59.60
2018-07-27T02:00:40.787Z,59.80
2018-07-27T02:03:09.516Z,59.80
2018-07-27T02:10:35.117Z,60.20
2018-07-27T02:13:03.862Z,60.30
2018-07-27T02:15:32.523Z,60.70
2018-07-27T02:18:01.301Z,60.60
2018-07-27T02:20:30.000Z,60.90
2018-07-27T02:22:58.729Z,61.00
2018-07-27T02:25:27.455Z,61.80
2018-07-27T02:27:56.253Z,61.10
2018-07-27T02:30:25.041Z,61.40
2018-07-27T02:32:53.710Z,61.60
2018-07-27T02:35:22.766Z,61.70
2018-07-27T02:37:51.536Z,62.00
2018-07-27T02:40:20.287Z,62.10
2018-07-27T02:42:49.092Z,62.10
2018-07-27T02:45:17.856Z,62.30
2018-07-27T02:47:48.545Z,62.40
2018-07-27T02:50:18.254Z,62.50
2018-07-27T02:52:47.058Z,62.70
2018-07-27T02:57:44.250Z,63.20
2018-07-27T03:00:12.998Z,63.40
2018-07-27T03:02:41.714Z,63.70
2018-07-27T03:05:10.447Z,63.80
2018-07-27T03:07:39.159Z,64.10
2018-07-27T03:10:08.736Z,64.10
2018-07-27T03:12:37.437Z,64.10
2018-07-27T03:15:06.552Z,64.20
2018-07-27T03:17:35.306Z,64.50
2018-07-27T03:20:04.071Z,64.60
2018-07-27T03:22:32.785Z,64.50
2018-07-27T03:25:01.569Z,64.60
2018-07-27T03:27:30.290Z,64.90
2018-07-27T03:29:59.047Z,64.90
2018-07-27T03:32:27.758Z,65.20
2018-07-27T03:34:56.489Z,65.50
2018-07-27T03:37:25.209Z,65.50
2018-07-27T03:39:54.139Z,65.80
2018-07-27T03:42:22.847Z,66.00
2018-07-27T03:44:51.572Z,66.10
2018-07-27T03:47:20.348Z,66.20
2018-07-27T03:49:49.064Z,66.20
2018-07-27T03:57:14.711Z,67.30
2018-07-27T04:02:11.923Z,67.20
2018-07-27T04:04:40.627Z,66.60
2018-07-27T04:07:09.361Z,66.70
2018-07-27T04:12:06.629Z,67.00
2018-07-27T04:14:35.400Z,67.10
2018-07-27T04:17:04.131Z,67.10
2018-07-27T04:19:32.866Z,67.30
2018-07-27T04:22:01.643Z,67.20
2018-07-27T04:24:30.354Z,67.30
2018-07-27T04:26:59.099Z,67.30
2018-07-27T04:29:27.823Z,67.50
2018-07-27T04:31:56.563Z,67.40
2018-07-27T04:34:25.305Z,67.50
2018-07-27T04:36:54.031Z,67.50
2018-07-27T04:39:22.759Z,67.60
2018-07-27T04:41:51.553Z,67.60
2018-07-27T04:44:20.347Z,67.70
2018-07-27T04:46:49.063Z,68.20
2018-07-27T04:51:46.496Z,68.50
2018-07-27T04:54:15.220Z,68.70
2018-07-27T04:56:43.962Z,68.40
2018-07-27T04:59:12.688Z,68.30
2018-07-27T05:01:41.475Z,68.30
2018-07-27T05:04:10.246Z,68.10
2018-07-27T05:06:39.005Z,68.10
2018-07-27T05:09:13.362Z,68.00
2018-07-27T05:11:42.467Z,67.90
2018-07-27T05:14:11.196Z,67.80
2018-07-27T05:16:39.935Z,67.80
2018-07-27T05:19:08.727Z,68.10
2018-07-27T05:21:37.441Z,67.90
2018-07-27T05:24:06.216Z,68.00
2018-07-27T05:26:35.082Z,68.00
2018-07-27T05:29:03.819Z,68.00
2018-07-27T05:31:32.570Z,67.90
2018-07-27T05:34:01.361Z,67.90
2018-07-27T05:36:30.080Z,67.90
2018-07-27T05:38:59.192Z,67.90
2018-07-27T05:41:27.919Z,67.90
2018-07-27T05:43:56.764Z,67.80
2018-07-27T05:46:25.507Z,67.70
2018-07-27T05:48:54.285Z,68.00
2018-07-27T05:51:23.027Z,68.00
2018-07-27T05:53:51.769Z,67.70
2018-07-27T05:56:20.520Z,67.70
2018-07-27T05:58:49.253Z,67.80
2018-07-27T06:01:18.061Z,67.90
2018-07-27T06:03:46.768Z,67.90
2018-07-27T06:06:15.503Z,67.90
2018-07-27T06:08:44.252Z,68.00
2018-07-27T06:13:41.386Z,68.00
2018-07-27T06:18:39.049Z,67.80
2018-07-27T06:21:07.988Z,67.70
2018-07-27T06:23:37.218Z,68.40
2018-07-27T06:26:06.009Z,67.90
2018-07-27T06:28:34.728Z,68.10
2018-07-27T06:33:31.923Z,67.90
2018-07-27T06:36:00.761Z,67.90
2018-07-27T06:38:29.532Z,68.00
2018-07-27T06:40:58.412Z,68.50
2018-07-27T06:43:27.149Z,68.20
2018-07-27T06:45:55.929Z,68.00
2018-07-27T06:48:24.677Z,68.00
2018-07-27T06:50:53.403Z,68.00
2018-07-27T06:53:22.163Z,67.90
2018-07-27T06:55:50.899Z,67.90
2018-07-27T07:00:48.164Z,68.30
2018-07-27T07:03:16.899Z,68.30
2018-07-27T07:05:45.633Z,68.40
2018-07-27T07:08:14.358Z,68.30
2018-07-27T07:10:43.201Z,68.10
2018-07-27T07:13:12.040Z,67.90
2018-07-27T07:15:40.753Z,67.70
2018-07-27T07:18:09.469Z,67.50
2018-07-27T07:20:38.263Z,67.70
2018-07-27T07:23:06.948Z,67.60
2018-07-27T07:25:35.748Z,67.40
2018-07-27T07:30:32.859Z,67.40
2018-07-27T07:33:01.955Z,67.40
2018-07-27T07:35:30.641Z,67.30
2018-07-27T07:37:59.351Z,67.40
2018-07-27T07:40:28.159Z,67.10
2018-07-27T07:42:56.847Z,67.00
2018-07-27T07:45:25.562Z,66.70
2018-07-27T07:47:54.634Z,66.60
2018-07-27T07:50:23.408Z,66.20
2018-07-27T07:52:52.084Z,65.70
2018-07-27T07:55:20.808Z,65.40
2018-07-27T07:57:49.585Z,65.50
2018-07-27T08:00:18.295Z,64.90
2018-07-27T08:02:47.043Z,65.50
2018-07-27T08:05:15.807Z,64.30
2018-07-27T08:07:44.571Z,63.90
2018-07-27T08:10:13.294Z,63.80
2018-07-27T08:12:42.090Z,63.40
2018-07-27T08:15:10.885Z,62.20
2018-07-27T08:17:39.627Z,62.10
2018-07-27T08:20:08.358Z,62.10
2018-07-27T08:22:37.165Z,61.40
2018-07-27T08:25:05.838Z,61.50
2018-07-27T08:27:34.624Z,61.20
2018-07-27T08:30:03.363Z,61.20
2018-07-27T08:32:32.061Z,61.30
2018-07-27T08:35:01.008Z,60.90
2018-07-27T08:37:29.793Z,60.50
2018-07-27T08:39:59.528Z,60.00
2018-07-27T08:42:28.532Z,60.00
2018-07-27T08:44:57.240Z,59.60
2018-07-27T08:47:25.951Z,59.60
2018-07-27T08:49:54.679Z,59.60
2018-07-27T08:52:23.488Z,59.50
2018-07-27T08:54:52.279Z,59.40
2018-07-27T08:57:21.010Z,59.30
2018-07-27T08:59:49.720Z,59.50
2018-07-27T09:02:18.446Z,59.80
2018-07-27T09:04:47.301Z,60.30
2018-07-27T09:07:16.025Z,59.00
2018-07-27T09:09:44.860Z,58.90
2018-07-27T09:12:13.575Z,57.90
2018-07-27T09:17:11.071Z,57.30
2018-07-27T09:19:39.924Z,56.90
2018-07-27T09:22:08.759Z,57.00
2018-07-27T09:24:37.942Z,56.70
2018-07-27T09:27:06.581Z,56.70
2018-07-27T09:29:35.385Z,56.80
2018-07-27T09:32:04.387Z,56.70
2018-07-27T09:34:33.103Z,56.80
2018-07-27T09:37:01.821Z,56.90
2018-07-27T09:39:30.795Z,56.30
2018-07-27T09:41:59.504Z,56.50
2018-07-27T09:44:28.322Z,56.50
2018-07-27T09:46:56.998Z,56.40
2018-07-27T09:49:25.743Z,56.10
2018-07-27T09:51:54.560Z,56.00
2018-07-27T09:54:23.274Z,55.20
2018-07-27T09:56:52.004Z,54.60
2018-07-27T09:59:20.702Z,54.70
2018-07-27T10:01:49.535Z,54.70
2018-07-27T10:04:18.337Z,55.00
2018-07-27T10:06:47.037Z,56.00
2018-07-27T10:11:44.260Z,55.60
2018-07-27T10:14:13.075Z,55.90
2018-07-27T10:16:42.172Z,55.50
2018-07-27T10:19:10.855Z,55.60
2018-07-27T10:21:39.590Z,55.10
2018-07-27T10:24:08.319Z,54.90
2018-07-27T10:26:37.015Z,55.20
2018-07-27T10:29:11.718Z,55.10
2018-07-27T10:31:40.535Z,55.40
2018-07-27T10:34:09.567Z,55.00
2018-07-27T10:36:38.318Z,55.20
2018-07-27T10:39:09.081Z,55.00
2018-07-27T10:41:37.796Z,55.20
2018-07-27T10:44:06.665Z,55.30
2018-07-27T10:46:35.420Z,55.60
2018-07-27T10:49:04.514Z,55.90
2018-07-27T10:51:33.313Z,55.90
2018-07-27T10:54:02.030Z,55.40
2018-07-27T10:56:30.833Z,54.50
2018-07-27T10:58:59.568Z,54.70
2018-07-27T11:01:28.275Z,54.60
2018-07-27T11:06:25.648Z,54.90
2018-07-27T11:11:22.792Z,55.10
2018-07-27T11:13:51.510Z,54.80
2018-07-27T11:16:23.593Z,54.30
2018-07-27T11:21:20.930Z,54.20
2018-07-27T11:23:49.598Z,53.80
2018-07-27T11:26:18.300Z,53.70
2018-07-27T11:28:47.026Z,53.80
2018-07-27T11:31:15.873Z,53.30
2018-07-27T11:33:44.661Z,53.00
2018-07-27T11:36:13.420Z,52.90
2018-07-27T11:38:42.167Z,52.70
2018-07-27T11:41:10.921Z,52.20
2018-07-27T11:43:39.651Z,51.90
2018-07-27T11:46:08.353Z,52.10
2018-07-27T11:48:37.086Z,52.00
2018-07-27T11:51:05.811Z,52.10
2018-07-27T11:56:02.963Z,52.10
2018-07-27T12:01:00.109Z,52.10
2018-07-27T12:03:28.809Z,52.00
2018-07-27T12:05:57.503Z,51.90
2018-07-27T12:10:54.697Z,50.40
2018-07-27T12:13:23.415Z,50.30
2018-07-27T12:15:52.115Z,50.40
2018-07-27T12:18:20.855Z,50.80
2018-07-27T12:20:49.746Z,50.90
2018-07-27T12:23:18.422Z,50.60
2018-07-27T12:25:47.132Z,50.70
2018-07-27T12:28:15.865Z,50.30
2018-07-27T12:30:44.611Z,50.10
2018-07-27T12:33:13.918Z,50.00
2018-07-27T12:35:42.950Z,49.90
2018-07-27T12:38:12.240Z,49.70
2018-07-27T12:40:41.125Z,49.80
2018-07-27T12:43:09.919Z,49.30
2018-07-27T12:45:38.626Z,49.70
2018-07-27T12:48:07.415Z,49.70
2018-07-27T12:50:36.188Z,50.10
2018-07-27T12:53:04.946Z,50.30
2018-07-27T12:55:33.672Z,50.20
2018-07-27T12:58:02.461Z,49.70
2018-07-27T13:00:31.207Z,48.40
2018-07-27T13:03:00.037Z,48.40
2018-07-27T13:05:28.797Z,48.60
2018-07-27T13:07:57.511Z,48.90
2018-07-27T13:10:26.196Z,48.80
2018-07-27T13:12:54.931Z,48.70
2018-07-27T13:15:23.642Z,48.30
2018-07-27T13:20:36.494Z,48.40
2018-07-27T13:23:05.444Z,48.10
2018-07-27T13:25:34.286Z,48.40
2018-07-27T13:28:03.046Z,48.50
2018-07-27T13:30:31.793Z,47.70
2018-07-27T13:35:29.346Z,48.60
2018-07-27T13:37:58.123Z,48.70
2018-07-27T13:40:26.827Z,48.20
2018-07-27T13:42:55.565Z,47.70
2018-07-27T13:45:24.304Z,47.50
2018-07-27T13:47:53.046Z,46.20
2018-07-27T13:50:21.768Z,45.90
2018-07-27T13:52:50.485Z,46.30
2018-07-27T13:57:47.746Z,46.70
2018-07-27T14:00:16.502Z,46.80
2018-07-27T14:02:45.239Z,46.80
2018-07-27T14:05:14.233Z,47.20
2018-07-27T14:07:42.946Z,47.50
2018-07-27T14:10:11.688Z,46.40
2018-07-27T14:15:09.253Z,46.40
2018-07-27T14:17:37.936Z,46.60
2018-07-27T14:20:06.727Z,46.60
2018-07-27T14:22:35.760Z,46.60
2018-07-27T14:25:04.687Z,46.40
2018-07-27T14:27:33.464Z,46.40
2018-07-27T14:30:02.318Z,46.30
2018-07-27T14:34:59.915Z,46.70
2018-07-27T14:37:28.622Z,46.90
2018-07-27T14:39:57.337Z,46.90
2018-07-27T14:42:26.068Z,46.20
2018-07-27T14:49:52.194Z,46.80
2018-07-27T14:52:21.063Z,46.40
2018-07-27T14:54:49.667Z,46.70
2018-07-27T14:57:18.379Z,46.10
2018-07-27T15:02:15.602Z,46.10
2018-07-27T15:04:47.581Z,45.60
2018-07-27T15:07:16.284Z,45.30
2018-07-27T15:09:45.178Z,44.50
2018-07-27T15:12:13.884Z,44.60
2018-07-27T15:14:42.614Z,44.80
2018-07-27T15:17:11.434Z,45.00
2018-07-27T15:19:40.158Z,45.20
2018-07-27T15:22:08.905Z,44.60
2018-07-27T15:24:37.619Z,44.30
2018-07-27T15:29:34.964Z,43.80
2018-07-27T15:32:03.670Z,43.30
2018-07-27T15:37:00.810Z,44.30
2018-07-27T15:39:29.531Z,44.40
2018-07-27T15:44:26.746Z,44.60
2018-07-27T15:46:55.574Z,45.00
2018-07-27T15:49:24.270Z,45.20
2018-07-27T15:54:21.402Z,45.40
2018-07-27T15:56:50.151Z,45.30
2018-07-27T15:59:18.865Z,45.50
2018-07-27T16:01:47.926Z,46.00
2018-07-27T16:04:16.637Z,46.40
2018-07-27T16:06:45.468Z,47.00
2018-07-27T16:09:14.158Z,47.00
2018-07-27T16:11:42.918Z,52.00
2018-07-27T16:14:11.735Z,51.80
2018-07-27T16:16:40.430Z,55.40
2018-07-27T16:19:09.190Z,57.30
2018-07-27T16:21:37.883Z,57.40
2018-07-27T16:24:06.593Z,59.50
2018-07-27T16:26:35.327Z,58.90
2018-07-27T16:29:04.399Z,59.20
2018-07-27T16:31:33.152Z,59.10
2018-07-27T16:34:01.985Z,59.40
2018-07-27T16:36:30.982Z,56.40
2018-07-27T16:41:28.418Z,56.30
2018-07-27T16:43:57.402Z,56.40
2018-07-27T16:46:26.272Z,55.10
2018-07-27T16:48:55.327Z,54.60
2018-07-27T16:51:24.178Z,54.20
2018-07-27T16:53:53.226Z,54.70
2018-07-27T16:56:22.106Z,54.40
2018-07-27T16:58:51.208Z,52.80
2018-07-27T17:01:20.072Z,52.70
2018-07-27T17:03:48.968Z,52.30
2018-07-27T17:06:18.102Z,51.70
2018-07-27T17:08:47.019Z,52.40
2018-07-27T17:11:15.931Z,51.90
2018-07-27T17:13:44.866Z,52.10
2018-07-27T17:16:13.624Z,51.90
2018-07-27T17:23:39.598Z,50.80
2018-07-27T17:26:08.325Z,50.80
2018-07-27T17:28:37.261Z,51.00
2018-07-27T17:33:34.760Z,51.80
2018-07-27T17:36:03.503Z,51.20
2018-07-27T17:38:32.208Z,51.70
2018-07-27T17:43:29.463Z,50.50
2018-07-27T17:45:58.172Z,51.20
2018-07-27T17:48:26.970Z,50.60
2018-07-27T17:50:55.738Z,50.40
2018-07-27T17:53:24.452Z,50.80
2018-07-27T17:55:53.724Z,51.00
2018-07-27T17:58:22.783Z,50.80
2018-07-27T18:00:51.602Z,50.90
2018-07-27T18:03:20.290Z,50.90
2018-07-27T18:05:49.047Z,51.00
2018-07-27T18:08:17.851Z,51.20
2018-07-27T18:10:46.590Z,51.20
2018-07-27T18:13:15.482Z,51.10
2018-07-27T18:15:44.176Z,51.40
2018-07-27T18:18:13.058Z,51.60
2018-07-27T18:20:41.767Z,51.70
2018-07-27T18:23:13.984Z,51.90
2018-07-27T18:25:42.699Z,52.20
2018-07-27T18:28:11.452Z,52.40
2018-07-27T18:30:40.243Z,52.60
2018-07-27T18:33:09.165Z,52.80
2018-07-27T18:35:37.878Z,53.00
2018-07-27T18:38:06.893Z,53.20
2018-07-27T18:40:35.663Z,53.40
2018-07-27T18:43:04.408Z,53.60
2018-07-27T18:48:01.805Z,53.40
2018-07-27T18:50:30.507Z,54.00
2018-07-27T18:52:59.277Z,54.30
2018-07-27T18:55:27.994Z,54.50
2018-07-27T18:57:56.768Z,54.70
2018-07-27T19:00:25.510Z,54.80
2018-07-27T19:02:54.227Z,55.00
2018-07-27T19:05:23.015Z,55.10
2018-07-27T19:07:51.905Z,55.00
2018-07-27T19:12:49.243Z,55.50
2018-07-27T19:15:17.945Z,55.70
2018-07-27T19:17:46.831Z,56.00
2018-07-27T19:20:15.639Z,56.90
2018-07-27T19:22:44.350Z,56.60
2018-07-27T19:25:17.111Z,57.60
2018-07-27T19:27:45.906Z,57.90
2018-07-27T19:30:14.623Z,57.90
2018-07-27T19:32:43.365Z,57.70
2018-07-27T19:37:40.717Z,57.80
2018-07-27T19:40:09.382Z,57.80
2018-07-27T19:42:38.111Z,57.70
2018-07-27T19:45:06.850Z,57.70
2018-07-27T19:47:35.668Z,57.80
2018-07-27T19:50:04.563Z,57.90
2018-07-27T19:52:33.391Z,58.40
2018-07-27T19:55:02.136Z,58.90
2018-07-27T19:57:30.920Z,59.00
2018-07-27T19:59:59.636Z,59.30
2018-07-27T20:07:25.443Z,59.50
2018-07-27T20:09:57.904Z,59.30
2018-07-27T20:12:26.624Z,59.40
2018-07-27T20:14:55.355Z,59.40
2018-07-27T20:17:24.074Z,59.30
2018-07-27T20:19:53.236Z,59.40
2018-07-27T20:22:21.997Z,59.50
2018-07-27T20:24:50.778Z,59.90
2018-07-27T20:29:48.085Z,60.00
2018-07-27T20:32:17.178Z,60.00
2018-07-27T20:34:46.932Z,60.00
2018-07-27T20:37:15.675Z,59.90
2018-07-27T20:39:44.432Z,59.90
2018-07-27T20:42:13.142Z,60.60
2018-07-27T20:47:10.799Z,60.80
2018-07-27T20:49:39.500Z,60.50
2018-07-27T20:52:08.693Z,60.60
2018-07-27T20:54:37.451Z,61.00
2018-07-27T20:57:06.419Z,60.60
2018-07-27T20:59:35.107Z,60.90
2018-07-27T21:02:03.856Z,60.90
2018-07-27T21:07:01.041Z,60.90
2018-07-27T21:09:29.849Z,61.00
2018-07-27T21:11:58.684Z,60.90
2018-07-27T21:14:27.413Z,61.00
2018-07-27T21:16:56.169Z,60.90
2018-07-27T21:19:24.889Z,60.90
2018-07-27T21:21:53.799Z,60.80
2018-07-27T21:24:22.509Z,60.90
2018-07-27T21:26:51.258Z,60.90
2018-07-27T21:29:20.044Z,60.90
2018-07-27T21:31:48.898Z,61.10
2018-07-27T21:34:17.689Z,61.00
2018-07-27T21:36:46.482Z,61.80
2018-07-27T21:39:15.263Z,61.10
2018-07-27T21:41:43.951Z,61.20
2018-07-27T21:44:13.046Z,61.40
2018-07-27T21:46:42.442Z,61.30
2018-07-27T21:49:11.173Z,61.60
2018-07-27T21:51:40.090Z,61.80
2018-07-27T21:56:37.238Z,61.60
2018-07-27T21:59:05.981Z,61.50
2018-07-27T22:01:34.757Z,61.30
2018-07-27T22:04:03.505Z,61.30
2018-07-27T22:06:32.243Z,61.50
2018-07-27T22:09:01.145Z,61.70
2018-07-27T22:11:29.901Z,62.10
2018-07-27T22:13:58.634Z,62.30
2018-07-27T22:16:27.345Z,62.20
2018-07-27T22:18:56.077Z,62.00
2018-07-27T22:21:24.812Z,62.00
2018-07-27T22:23:53.603Z,61.90
2018-07-27T22:26:22.361Z,61.90
2018-07-27T22:28:51.121Z,61.90
2018-07-27T22:31:19.871Z,61.90
2018-07-27T22:33:48.711Z,61.90
2018-07-27T22:36:17.434Z,61.80
2018-07-27T22:41:14.714Z,61.90
2018-07-27T22:43:43.509Z,61.90
2018-07-27T22:46:12.464Z,62.10
2018-07-27T22:48:41.252Z,62.70
2018-07-27T22:51:09.962Z,63.00
2018-07-27T22:53:38.726Z,63.00
2018-07-27T22:56:07.398Z,63.00
2018-07-27T22:58:36.124Z,62.90
2018-07-27T23:01:05.024Z,62.90
2018-07-27T23:03:33.740Z,62.90
2018-07-27T23:06:02.472Z,62.70
2018-07-27T23:08:31.282Z,62.80
2018-07-27T23:10:59.950Z,62.70
2018-07-27T23:13:28.657Z,62.60
2018-07-27T23:18:26.240Z,62.60
2018-07-27T23:20:55.030Z,62.50
2018-07-27T23:23:23.752Z,62.50
2018-07-27T23:25:52.623Z,62.50
2018-07-27T23:28:21.363Z,62.50
2018-07-27T23:30:50.089Z,62.60
2018-07-27T23:33:18.807Z,62.60
2018-07-27T23:35:47.595Z,62.50
2018-07-27T23:38:16.412Z,62.60
2018-07-27T23:40:45.172Z,62.60
2018-07-27T23:43:14.710Z,62.80
2018-07-27T23:45:43.452Z,63.00
2018-07-27T23:48:12.220Z,63.30
2018-07-27T23:50:41.052Z,63.40
2018-07-27T23:53:09.870Z,63.40
2018-07-27T23:55:38.562Z,63.50
